Sunday, July 22, 2018, 8:50 AM EDT
Back to Local

KART, Watertown International Airport

Location: Dexter, NY, United States Lat: 43.983
Local Time: 8:50 AM EDT (12:50 GMT) Lon: -76.033
Time Zone: US/Eastern Elev: 324 ft

Show me the last for .
Show Decoded

2018-07-22 07:56 METAR KART 221156Z AUTO 05014KT 10SM BKN110 18/16 A2983 RMK AO2 RAB24E33 SLP096
                 P0000 60007 70007 T01830161 10200 20167 56020 =
2018-07-22 06:56 METAR KART 221056Z AUTO 05012KT 10SM OVC095 17/16 A2984 RMK AO2 RAE48 SLP100
                 P0001 T01720156 =
2018-07-22 05:56 METAR KART 220956Z AUTO 06009KT 5SM -RA BR BKN110 17/15 A2987 RMK AO2 SLP110
                 P0005 T01670150 =
2018-07-22 04:56 METAR KART 220856Z AUTO 06008KT 10SM -RA SCT075 OVC090 17/15 A2989 RMK AO2 RAB01
                 SLP116 P0001 60001 T01720150 56021 =
2018-07-22 03:56 METAR KART 220756Z AUTO 07009KT 10SM SCT060 BKN075 BKN110 20/13 A2991 RMK AO2
                 RAB45E54 SLP121 P0000 T02000128 =
2018-07-22 02:56 METAR KART 220656Z AUTO 07007KT 10SM CLR 19/13 A2993 RMK AO2 SLP128 T01890128 =
2018-07-22 01:56 METAR KART 220556Z AUTO 08007KT 10SM CLR 18/13 A2995 RMK AO2 SLP136 T01780133
                 10256 20167 58012 =
2018-07-22 00:56 METAR KART 220456Z AUTO 09004KT 10SM CLR 18/13 A2996 RMK AO2 SLP142 T01780128
                 403060167 =
2018-07-21 23:56 METAR KART 220356Z AUTO 08004KT 10SM CLR 19/12 A2998 RMK AO2 SLP147 T01940122 =
2018-07-21 22:56 METAR KART 220256Z AUTO 12003KT 10SM CLR 21/13 A2998 RMK AO2 SLP148 T02060128
                 51007 =
2018-07-21 21:56 METAR KART 220156Z AUTO 12004KT 10SM CLR 22/12 A2998 RMK AO2 SLP147 T02170122 =
2018-07-21 20:56 METAR KART 220056Z AUTO 15005KT 10SM BKN100 BKN120 24/12 A2997 RMK AO2 SLP143
                 T02390122 =
2018-07-21 19:56 METAR KART 212356Z AUTO 16007KT 10SM BKN095 26/12 A2996 RMK AO2 SLP141 T02560122
                 10306 20256 53002 =
2018-07-21 18:56 METAR KART 212256Z AUTO 15006KT 10SM BKN110 26/11 A2996 RMK AO2 SLP139 T02610106
                 =
2018-07-21 17:56 METAR KART 212156Z AUTO 23003KT 10SM FEW120 27/15 A2995 RMK AO2 SLP139 T02720150
                 =
2018-07-21 16:56 METAR KART 212056Z AUTO 20003KT 10SM CLR 28/09 A2996 RMK AO2 SLP138 T02830094
                 56010 =
2018-07-21 15:56 METAR KART 211956Z AUTO 17009KT 10SM CLR 30/07 A2996 RMK AO2 SLP139 T03000072 =
2018-07-21 14:56 METAR KART 211856Z AUTO 15007KT 120V180 10SM CLR 29/07 A2997 RMK AO2 SLP142
                 T02940072 =
2018-07-21 13:56 METAR KART 211756Z AUTO 11008KT 10SM CLR 28/07 A2999 RMK AO2 SLP148 T02830067
                 10289 20206 58018 =
2018-07-21 12:56 METAR KART 211656Z AUTO 13007KT 10SM CLR 28/09 A3000 RMK AO2 SLP154 T02780089 =
2018-07-21 11:56 METAR KART 211556Z AUTO VRB06KT 10SM CLR 27/12 A3003 RMK AO2 SLP162 T02670117 =
2018-07-21 10:56 METAR KART 211456Z AUTO 13007KT 100V170 10SM CLR 26/12 A3004 RMK AO2 SLP166
                 T02560117 55002 =
2018-07-21 09:56 METAR KART 211356Z AUTO 15009G14KT 10SM CLR 24/13 A3003 RMK AO2 SLP166 T02440128
                 =
2018-07-21 08:56 METAR KART 211256Z AUTO 14008KT 10SM CLR 22/13 A3004 RMK AO2 SLP167 T02220133 =

Support USWX by starting your Amazon purchase here.